createdAt,value
2019-02-28T00:01:39.353Z,10.17
2019-02-28T00:04:25.720Z,9.47
2019-02-28T00:06:55.708Z,8.17
2019-02-28T00:09:25.680Z,8.30
2019-02-28T00:11:55.405Z,9.37
2019-02-28T00:14:24.040Z,8.27
2019-02-28T00:16:52.979Z,7.83
2019-02-28T00:26:46.530Z,8.87
2019-02-28T00:29:10.217Z,8.20
2019-02-28T00:31:39.639Z,8.07
2019-02-28T00:34:07.545Z,7.23
2019-02-28T00:36:40.921Z,8.30
2019-02-28T00:39:10.265Z,8.30
2019-02-28T00:41:42.985Z,8.30
2019-02-28T00:44:08.478Z,8.03
2019-02-28T00:46:37.288Z,8.30
2019-02-28T00:49:06.303Z,8.13
2019-02-28T00:51:33.938Z,8.07
2019-02-28T00:54:02.936Z,8.93
2019-02-28T00:56:31.898Z,8.57
2019-02-28T00:59:00.485Z,8.87
2019-02-28T01:01:33.864Z,8.43
2019-02-28T01:04:01.559Z,8.00
2019-02-28T01:06:30.252Z,8.63
2019-02-28T01:08:59.060Z,8.23
2019-02-28T01:11:26.902Z,8.53
2019-02-28T01:14:01.510Z,9.10
2019-02-28T01:16:29.340Z,8.20
2019-02-28T01:18:58.049Z,9.17
2019-02-28T01:21:26.890Z,8.27
2019-02-28T01:24:00.656Z,8.33
2019-02-28T01:26:30.493Z,7.67
2019-02-28T01:29:02.768Z,9.03
2019-02-28T01:31:30.448Z,8.13
2019-02-28T01:34:03.077Z,10.70
2019-02-28T01:36:31.812Z,11.00
2019-02-28T01:38:59.368Z,12.77
2019-02-28T01:41:28.935Z,9.97
2019-02-28T01:43:56.626Z,9.67
2019-02-28T01:49:29.760Z,8.43
2019-02-28T01:52:36.696Z,8.73
2019-02-28T01:55:25.020Z,7.90
2019-02-28T02:01:46.113Z,7.83
2019-02-28T02:33:54.477Z,8.03
2019-02-28T02:36:23.690Z,7.40
2019-02-28T02:38:51.276Z,7.90
2019-02-28T02:41:18.985Z,7.13
2019-02-28T02:43:46.618Z,7.10
2019-02-28T02:46:35.109Z,6.83
2019-02-28T02:49:04.133Z,6.80
2019-02-28T02:51:31.805Z,6.63
2019-02-28T02:53:59.508Z,7.10
2019-02-28T02:56:28.795Z,7.37
2019-02-28T02:59:01.091Z,7.17
2019-02-28T03:01:29.555Z,6.73
2019-02-28T03:03:58.287Z,7.20
2019-02-28T03:06:27.128Z,7.70
2019-02-28T03:08:54.903Z,7.77
2019-02-28T03:11:26.035Z,8.30
2019-02-28T03:13:53.770Z,8.10
2019-02-28T03:16:22.815Z,8.43
2019-02-28T03:18:56.477Z,7.93
2019-02-28T03:21:21.255Z,8.63
2019-02-28T03:23:50.542Z,7.37
2019-02-28T03:26:21.043Z,8.27
2019-02-28T03:28:50.123Z,7.80
2019-02-28T03:31:21.213Z,8.33
2019-02-28T03:33:50.196Z,8.20
2019-02-28T03:36:17.859Z,7.90
2019-02-28T03:38:49.630Z,7.77
2019-02-28T03:41:17.907Z,8.40
2019-02-28T03:43:49.029Z,9.03
2019-02-28T03:46:16.731Z,8.37
2019-02-28T03:48:44.355Z,8.90
2019-02-28T03:51:13.474Z,8.40
2019-02-28T03:53:55.676Z,9.27
2019-02-28T03:56:20.336Z,8.87
2019-02-28T03:58:48.328Z,8.50
2019-02-28T04:01:17.081Z,9.10
2019-02-28T04:03:45.990Z,8.43
2019-02-28T04:06:19.953Z,9.27
2019-02-28T04:08:51.031Z,9.67
2019-02-28T04:11:20.012Z,8.73
2019-02-28T04:13:52.400Z,9.00
2019-02-28T04:16:22.031Z,8.90
2019-02-28T04:18:53.456Z,9.23
2019-02-28T04:21:22.177Z,9.67
2019-02-28T04:23:51.397Z,8.67
2019-02-28T04:26:20.617Z,8.87
2019-02-28T04:28:53.277Z,8.97
2019-02-28T04:31:19.970Z,9.63
2019-02-28T04:33:48.588Z,9.73
2019-02-28T04:36:16.354Z,10.17
2019-02-28T04:38:44.915Z,8.87
2019-02-28T04:41:13.773Z,9.77
2019-02-28T04:43:44.359Z,9.83
2019-02-28T04:46:14.948Z,8.53
2019-02-28T04:48:45.625Z,10.40
2019-02-28T04:51:13.666Z,9.70
2019-02-28T04:53:45.514Z,10.00
2019-02-28T04:56:14.583Z,11.40
2019-02-28T04:58:43.064Z,9.63
2019-02-28T05:01:12.485Z,10.43
2019-02-28T05:03:41.991Z,10.63
2019-02-28T05:06:09.601Z,10.33
2019-02-28T05:08:38.888Z,9.83
2019-02-28T05:11:08.201Z,9.27
2019-02-28T05:13:37.099Z,10.07
2019-02-28T05:16:09.419Z,9.90
2019-02-28T05:18:38.409Z,10.13
2019-02-28T05:21:10.257Z,10.23
2019-02-28T05:23:51.557Z,9.77
2019-02-28T05:26:20.290Z,9.80
2019-02-28T05:28:48.029Z,10.57
2019-02-28T05:31:15.705Z,9.63
2019-02-28T05:33:44.467Z,9.77
2019-02-28T05:36:14.660Z,9.80
2019-02-28T05:38:43.884Z,9.73
2019-02-28T05:41:15.272Z,10.07
2019-02-28T05:43:42.476Z,10.27
2019-02-28T05:46:11.232Z,10.13
2019-02-28T05:48:39.444Z,10.17
2019-02-28T05:51:09.105Z,9.63
2019-02-28T05:53:41.370Z,10.20
2019-02-28T05:56:10.041Z,10.07
2019-02-28T06:03:06.110Z,9.83
2019-02-28T06:05:35.330Z,10.60
2019-02-28T06:08:03.571Z,10.00
2019-02-28T06:10:35.367Z,10.13
2019-02-28T06:13:06.688Z,10.43
2019-02-28T06:15:53.757Z,9.90
2019-02-28T06:18:55.844Z,10.33
2019-02-28T06:21:33.629Z,10.97
2019-02-28T06:24:02.965Z,11.60
2019-02-28T06:26:36.386Z,11.27
2019-02-28T06:29:29.261Z,10.73
2019-02-28T06:32:00.494Z,11.90
2019-02-28T06:34:31.077Z,11.10
2019-02-28T06:37:10.617Z,11.17
2019-02-28T06:39:39.823Z,10.53
2019-02-28T06:44:58.717Z,11.30
2019-02-28T06:47:47.991Z,11.63
2019-02-28T06:50:30.124Z,10.87
2019-02-28T06:53:17.604Z,11.13
2019-02-28T06:55:48.614Z,11.93
2019-02-28T06:58:19.286Z,10.90
2019-02-28T07:01:06.448Z,12.00
2019-02-28T07:03:39.022Z,11.00
2019-02-28T07:10:18.450Z,10.83
2019-02-28T07:13:11.831Z,11.30
2019-02-28T07:15:39.854Z,11.03
2019-02-28T07:18:08.154Z,11.17
2019-02-28T07:20:37.665Z,11.87
2019-02-28T07:23:22.263Z,11.60
2019-02-28T07:26:12.480Z,12.50
2019-02-28T07:28:42.173Z,11.17
2019-02-28T07:31:31.105Z,10.97
2019-02-28T07:37:47.179Z,10.63
2019-02-28T07:40:17.344Z,11.67
2019-02-28T07:50:10.800Z,10.77
2019-02-28T07:52:40.128Z,11.57
2019-02-28T07:55:09.206Z,11.00
2019-02-28T07:57:37.759Z,11.50
2019-02-28T08:00:18.271Z,12.67
2019-02-28T08:02:44.871Z,12.47
2019-02-28T08:05:33.798Z,12.47
2019-02-28T08:08:17.265Z,12.50
2019-02-28T08:10:49.343Z,12.57
2019-02-28T08:13:23.939Z,12.83
2019-02-28T08:16:08.503Z,13.53
2019-02-28T08:18:36.395Z,12.07
2019-02-28T08:21:05.419Z,13.30
2019-02-28T08:23:42.966Z,14.80
2019-02-28T08:26:10.682Z,13.20
2019-02-28T08:32:25.930Z,14.00
2019-02-28T08:34:55.520Z,13.63
2019-02-28T08:37:32.793Z,13.77
2019-02-28T08:40:08.815Z,14.70
2019-02-28T08:42:45.446Z,14.33
2019-02-28T08:46:13.889Z,13.07
2019-02-28T08:49:06.283Z,11.93
2019-02-28T08:51:40.755Z,12.07
2019-02-28T08:54:13.047Z,13.60
2019-02-28T08:56:54.135Z,13.20
2019-02-28T09:03:53.515Z,14.93
2019-02-28T09:06:22.027Z,14.13
2019-02-28T09:08:56.617Z,13.60
2019-02-28T09:11:28.511Z,14.47
2019-02-28T09:13:58.206Z,15.80
2019-02-28T09:16:25.779Z,19.13
2019-02-28T09:18:57.489Z,15.07
2019-02-28T09:21:27.740Z,14.73
2019-02-28T09:23:57.420Z,14.67
2019-02-28T09:26:31.257Z,15.27
2019-02-28T09:29:00.657Z,17.40
2019-02-28T09:31:39.071Z,16.00
2019-02-28T09:34:04.628Z,18.27
2019-02-28T09:36:32.409Z,18.47
2019-02-28T09:39:05.882Z,17.00
2019-02-28T09:41:51.761Z,16.40
2019-02-28T09:44:31.471Z,17.60
2019-02-28T09:47:11.680Z,17.77
2019-02-28T09:49:54.907Z,15.33
2019-02-28T09:52:27.739Z,18.23
2019-02-28T09:54:56.350Z,19.07
2019-02-28T09:57:25.588Z,18.37
2019-02-28T10:00:02.423Z,19.90
2019-02-28T10:02:31.909Z,19.27
2019-02-28T10:05:06.648Z,19.67
2019-02-28T10:07:35.590Z,19.40
2019-02-28T10:10:08.739Z,23.50
2019-02-28T10:12:44.014Z,22.80
2019-02-28T10:22:18.474Z,24.17
2019-02-28T10:24:48.181Z,25.20
2019-02-28T10:28:01.576Z,25.27
2019-02-28T10:34:41.104Z,25.13
2019-02-28T10:40:27.754Z,26.50
2019-02-28T10:42:56.809Z,26.37
2019-02-28T10:45:25.972Z,25.00
2019-02-28T10:47:55.210Z,26.23
2019-02-28T10:50:31.993Z,26.43
2019-02-28T10:53:04.576Z,25.10
2019-02-28T10:59:15.776Z,25.20
2019-02-28T11:02:05.370Z,24.13
2019-02-28T11:05:08.808Z,24.57
2019-02-28T11:08:02.483Z,24.13
2019-02-28T11:10:41.764Z,23.77
2019-02-28T11:16:58.848Z,24.33
2019-02-28T11:19:52.013Z,23.80
2019-02-28T11:22:20.050Z,23.50
2019-02-28T11:28:30.515Z,23.40
2019-02-28T11:31:00.456Z,22.87
2019-02-28T11:33:30.689Z,21.67
2019-02-28T11:39:59.454Z,22.30
2019-02-28T11:42:31.157Z,19.57
2019-02-28T11:45:06.173Z,17.87
2019-02-28T11:47:33.824Z,17.67
2019-02-28T11:50:04.638Z,18.87
2019-02-28T11:53:30.827Z,18.77
2019-02-28T11:57:03.035Z,19.13
2019-02-28T12:03:23.700Z,19.73
2019-02-28T12:05:27.652Z,18.00
2019-02-28T12:07:57.344Z,19.07
2019-02-28T12:14:22.102Z,20.82
2019-02-28T12:17:28.598Z,19.97
2019-02-28T12:23:54.240Z,17.63
2019-02-28T12:26:29.112Z,20.97
2019-02-28T12:29:41.724Z,19.07
2019-02-28T12:33:08.585Z,17.20
2019-02-28T12:35:40.523Z,16.20
2019-02-28T12:38:08.840Z,16.30
2019-02-28T12:40:56.089Z,16.93
2019-02-28T12:43:43.424Z,15.87
2019-02-28T12:47:13.376Z,15.17
2019-02-28T12:50:10.528Z,15.17
2019-02-28T12:59:23.583Z,13.47
2019-02-28T13:02:25.782Z,14.40
2019-02-28T13:05:26.447Z,15.83
2019-02-28T13:08:17.892Z,15.03
2019-02-28T13:10:49.279Z,15.60
2019-02-28T13:13:44.686Z,14.10
2019-02-28T13:19:24.546Z,15.93
2019-02-28T13:22:12.925Z,14.60
2019-02-28T13:25:03.619Z,16.20
2019-02-28T13:28:17.638Z,15.20
2019-02-28T13:31:12.156Z,15.10
2019-02-28T13:34:13.084Z,14.80
2019-02-28T13:36:40.953Z,15.87
2019-02-28T13:39:12.263Z,15.77
2019-02-28T13:42:04.329Z,14.67
2019-02-28T13:44:56.779Z,15.67
2019-02-28T13:47:25.881Z,14.73
2019-02-28T13:50:11.259Z,15.83
2019-02-28T13:53:17.598Z,14.60
2019-02-28T13:55:40.963Z,13.70
2019-02-28T13:58:53.827Z,15.33
2019-02-28T14:02:16.069Z,14.63
2019-02-28T14:04:45.388Z,13.77
2019-02-28T14:07:18.753Z,13.63
2019-02-28T14:10:21.491Z,13.40
2019-02-28T14:13:35.011Z,13.83
2019-02-28T14:16:26.521Z,13.77
2019-02-28T14:18:51.569Z,12.57
2019-02-28T14:21:53.349Z,13.90
2019-02-28T14:24:27.484Z,13.00
2019-02-28T14:27:06.544Z,11.90
2019-02-28T14:33:25.739Z,13.17
2019-02-28T14:35:53.768Z,13.97
2019-02-28T14:38:26.098Z,12.97
2019-02-28T14:41:06.501Z,13.60
2019-02-28T14:47:13.537Z,14.07
2019-02-28T14:49:48.490Z,14.03
2019-02-28T14:53:07.299Z,13.90
2019-02-28T14:55:42.822Z,12.10
2019-02-28T14:58:13.909Z,13.90
2019-02-28T15:00:42.230Z,14.27
2019-02-28T15:03:26.971Z,14.00
2019-02-28T15:06:57.501Z,13.63
2019-02-28T15:09:46.554Z,13.93
2019-02-28T15:16:08.292Z,14.23
2019-02-28T15:18:47.463Z,13.77
2019-02-28T15:21:42.043Z,14.83
2019-02-28T15:24:20.838Z,15.03
2019-02-28T15:27:06.468Z,15.10
2019-02-28T15:29:46.693Z,15.67
2019-02-28T15:32:17.242Z,16.10
2019-02-28T15:35:24.355Z,17.37
2019-02-28T15:38:38.104Z,15.90
2019-02-28T15:41:33.637Z,16.27
2019-02-28T15:43:57.982Z,17.40
2019-02-28T15:46:31.107Z,17.60
2019-02-28T15:48:58.869Z,17.50
2019-02-28T15:51:29.396Z,16.93
2019-02-28T15:54:03.361Z,17.03
2019-02-28T15:56:42.580Z,16.77
2019-02-28T16:00:05.413Z,16.80
2019-02-28T16:02:38.641Z,17.50
2019-02-28T16:05:25.771Z,16.37
2019-02-28T16:08:17.197Z,16.83
2019-02-28T16:14:44.972Z,17.50
2019-02-28T16:17:27.791Z,16.30
2019-02-28T16:20:13.150Z,16.93
2019-02-28T16:22:53.228Z,17.40
2019-02-28T16:25:29.191Z,18.73
2019-02-28T16:31:38.621Z,17.60
2019-02-28T16:34:08.344Z,17.27
2019-02-28T16:36:38.182Z,15.77
2019-02-28T16:39:07.259Z,17.27
2019-02-28T16:41:36.937Z,17.10
2019-02-28T16:44:08.267Z,16.70
2019-02-28T16:46:40.349Z,18.17
2019-02-28T16:49:19.495Z,17.57
2019-02-28T16:52:26.304Z,16.37
2019-02-28T16:55:32.930Z,18.50
2019-02-28T16:58:21.783Z,18.17
2019-02-28T17:01:04.465Z,19.10
2019-02-28T17:04:32.423Z,17.73
2019-02-28T17:08:15.550Z,18.07
2019-02-28T17:10:54.366Z,17.93
2019-02-28T17:13:40.353Z,18.43
2019-02-28T17:16:38.745Z,18.60
2019-02-28T17:19:58.698Z,18.00
2019-02-28T17:23:18.694Z,18.43
2019-02-28T17:29:46.294Z,17.10
2019-02-28T17:32:19.022Z,17.93
2019-02-28T17:34:48.016Z,17.60
2019-02-28T17:37:20.455Z,17.67
2019-02-28T17:39:54.070Z,17.23
2019-02-28T17:43:02.603Z,18.90
2019-02-28T17:50:05.826Z,18.50
2019-02-28T17:52:59.695Z,17.47
2019-02-28T17:56:44.433Z,20.53
2019-02-28T17:59:55.095Z,26.23
2019-02-28T18:21:59.005Z,25.67
2019-02-28T18:25:08.352Z,25.20
2019-02-28T18:28:32.237Z,23.83
2019-02-28T18:31:29.911Z,26.63
2019-02-28T18:34:33.623Z,23.90
2019-02-28T18:37:39.583Z,24.73
2019-02-28T18:40:14.406Z,23.27
2019-02-28T18:42:51.453Z,21.60
2019-02-28T18:45:37.611Z,21.83
2019-02-28T18:48:14.682Z,20.40
2019-02-28T18:50:47.354Z,18.70
2019-02-28T18:53:16.627Z,19.30
2019-02-28T18:55:45.653Z,17.93
2019-02-28T18:58:39.898Z,16.07
2019-02-28T19:01:21.111Z,15.57
2019-02-28T19:03:49.515Z,16.30
2019-02-28T19:06:20.769Z,16.00
2019-02-28T19:09:17.700Z,16.67
2019-02-28T19:11:52.665Z,17.00
2019-02-28T19:14:49.262Z,16.30
2019-02-28T19:22:10.329Z,17.63
2019-02-28T19:28:50.250Z,19.13
2019-02-28T19:31:24.882Z,18.90
2019-02-28T19:33:53.302Z,18.03
2019-02-28T19:36:30.779Z,17.97
2019-02-28T19:39:24.790Z,17.10
2019-02-28T19:46:01.254Z,11.93
2019-02-28T19:48:32.924Z,11.30
2019-02-28T19:51:05.151Z,10.73
2019-02-28T20:00:51.935Z,10.03
2019-02-28T20:04:25.809Z,10.17
2019-02-28T20:06:56.330Z,9.40
2019-02-28T20:09:29.242Z,10.50
2019-02-28T20:12:00.831Z,9.50
2019-02-28T20:14:28.859Z,8.77
2019-02-28T20:17:02.098Z,8.70
2019-02-28T20:19:30.253Z,8.37
2019-02-28T20:22:07.502Z,8.50
2019-02-28T20:24:39.396Z,8.00
2019-02-28T20:27:35.649Z,7.87
2019-02-28T20:30:16.467Z,8.23
2019-02-28T20:32:46.590Z,7.60
2019-02-28T20:35:26.753Z,7.47
2019-02-28T20:37:56.811Z,7.37
2019-02-28T20:40:31.232Z,7.27
2019-02-28T20:43:07.075Z,6.97
2019-02-28T20:45:35.290Z,6.20
2019-02-28T20:48:09.340Z,6.63
2019-02-28T20:50:43.500Z,6.00
2019-02-28T20:53:11.961Z,6.23
2019-02-28T20:55:49.062Z,6.50
2019-02-28T20:58:25.694Z,6.47
2019-02-28T21:01:13.092Z,6.83
2019-02-28T21:03:53.147Z,6.23
2019-02-28T21:06:41.489Z,5.97
2019-02-28T21:09:26.622Z,5.93
2019-02-28T21:11:55.090Z,5.90
2019-02-28T21:14:50.166Z,5.47
2019-02-28T21:20:42.339Z,5.47
2019-02-28T21:23:21.825Z,5.40
2019-02-28T21:25:54.799Z,5.70
2019-02-28T21:28:41.888Z,4.93
2019-02-28T21:31:29.323Z,5.10
2019-02-28T21:33:59.565Z,5.70
2019-02-28T21:36:27.708Z,5.30
2019-02-28T21:39:04.831Z,5.03
2019-02-28T21:41:37.202Z,4.80
2019-02-28T21:44:05.233Z,5.13
2019-02-28T21:46:40.097Z,5.53
2019-02-28T21:49:11.129Z,5.30
2019-02-28T21:51:55.190Z,7.03
2019-02-28T21:54:23.626Z,6.53
2019-02-28T21:56:56.592Z,6.40
2019-02-28T21:59:24.321Z,6.23
2019-02-28T22:01:52.377Z,6.37
2019-02-28T22:04:23.118Z,5.70
2019-02-28T22:06:56.138Z,5.80
2019-02-28T22:09:26.609Z,5.33
2019-02-28T22:12:01.641Z,6.23
2019-02-28T22:14:39.434Z,6.50
2019-02-28T22:17:10.438Z,6.30
2019-02-28T22:19:56.638Z,5.83
2019-02-28T22:22:28.686Z,6.97
2019-02-28T22:24:56.802Z,7.40
2019-02-28T22:27:29.316Z,7.80
2019-02-28T22:30:00.645Z,8.10
2019-02-28T22:32:46.631Z,9.00
2019-02-28T22:35:30.738Z,8.60
2019-02-28T22:38:01.894Z,9.13
2019-02-28T22:40:31.278Z,10.20
2019-02-28T22:43:01.078Z,10.13
2019-02-28T22:45:28.808Z,10.20
2019-02-28T22:47:56.721Z,10.20
2019-02-28T22:50:25.660Z,10.40
2019-02-28T22:52:56.407Z,10.77
2019-02-28T22:55:25.270Z,10.17
2019-02-28T22:57:53.208Z,11.20
2019-02-28T23:00:29.425Z,10.47
2019-02-28T23:02:57.368Z,11.50
2019-02-28T23:05:27.579Z,11.83
2019-02-28T23:07:58.862Z,12.00
2019-02-28T23:10:26.519Z,12.43
2019-02-28T23:12:55.571Z,12.77
2019-02-28T23:15:25.419Z,12.47
2019-02-28T23:17:56.416Z,12.23
2019-02-28T23:20:24.121Z,13.23
2019-02-28T23:22:51.791Z,14.13
2019-02-28T23:25:24.780Z,13.33
2019-02-28T23:28:08.536Z,13.93
2019-02-28T23:31:04.173Z,14.00
2019-02-28T23:33:34.250Z,14.67
2019-02-28T23:38:47.444Z,14.80
2019-02-28T23:50:24.941Z,15.40
2019-02-28T23:58:40.612Z,14.63
